sensor_id;sensor_type;location;lat;lon;timestamp;pressure;altitude;pressure_sealevel;temperature;humidity
70815;BME280;58428;49.478;10.986;2023-05-28T00:00:11;98661.50;;;13.60;100.00
70815;BME280;58428;49.478;10.986;2023-05-28T00:02:38;98661.03;;;13.59;100.00
70815;BME280;58428;49.478;10.986;2023-05-28T00:05:05;98657.41;;;13.55;100.00
70815;BME280;58428;49.478;10.986;2023-05-28T00:07:30;98653.78;;;13.51;100.00
70815;BME280;58428;49.478;10.986;2023-05-28T00:09:59;98659.47;;;13.46;100.00
70815;BME280;58428;49.478;10.986;2023-05-28T00:12:25;98659.59;;;13.49;100.00
70815;BME280;58428;49.478;10.986;2023-05-28T00:14:50;98655.06;;;13.41;100.00
70815;BME280;58428;49.478;10.986;2023-05-28T00:17:16;98666.13;;;13.36;100.00
70815;BME280;58428;49.478;10.986;2023-05-28T00:19:42;98658.63;;;13.33;100.00
70815;BME280;58428;49.478;10.986;2023-05-28T00:22:08;98661.03;;;13.35;100.00
70815;BME280;58428;49.478;10.986;2023-05-28T00:24:34;98655.13;;;13.33;100.00
70815;BME280;58428;49.478;10.986;2023-05-28T00:26:59;98652.97;;;13.26;100.00
70815;BME280;58428;49.478;10.986;2023-05-28T00:29:25;98654.91;;;13.26;100.00
70815;BME280;58428;49.478;10.986;2023-05-28T00:31:55;98655.25;;;13.24;100.00
70815;BME280;58428;49.478;10.986;2023-05-28T00:34:21;98649.34;;;13.23;100.00
70815;BME280;58428;49.478;10.986;2023-05-28T00:36:47;98646.19;;;13.21;100.00
70815;BME280;58428;49.478;10.986;2023-05-28T00:39:17;98643.47;;;13.21;100.00
70815;BME280;58428;49.478;10.986;2023-05-28T00:41:43;98651.81;;;13.16;100.00
70815;BME280;58428;49.478;10.986;2023-05-28T00:44:10;98642.63;;;13.08;100.00
70815;BME280;58428;49.478;10.986;2023-05-28T00:46:36;98642.41;;;13.01;100.00
70815;BME280;58428;49.478;10.986;2023-05-28T00:49:02;98643.97;;;13.02;100.00
70815;BME280;58428;49.478;10.986;2023-05-28T00:51:28;98647.03;;;13.01;100.00
70815;BME280;58428;49.478;10.986;2023-05-28T00:53:54;98643.97;;;13.02;100.00
70815;BME280;58428;49.478;10.986;2023-05-28T00:56:20;98642.25;;;12.98;100.00
70815;BME280;58428;49.478;10.986;2023-05-28T00:58:49;98644.06;;;12.94;100.00
70815;BME280;58428;49.478;10.986;2023-05-28T01:01:14;98637.59;;;12.87;100.00
70815;BME280;58428;49.478;10.986;2023-05-28T01:03:40;98638.28;;;12.84;100.00
70815;BME280;58428;49.478;10.986;2023-05-28T01:06:06;98639.38;;;12.83;100.00
70815;BME280;58428;49.478;10.986;2023-05-28T01:08:35;98634.16;;;12.78;100.00
70815;BME280;58428;49.478;10.986;2023-05-28T01:11:02;98639.13;;;12.76;100.00
70815;BME280;58428;49.478;10.986;2023-05-28T01:13:28;98634.91;;;12.66;100.00
70815;BME280;58428;49.478;10.986;2023-05-28T01:15:53;98632.69;;;12.60;100.00
70815;BME280;58428;49.478;10.986;2023-05-28T01:18:19;98640.47;;;12.49;100.00
70815;BME280;58428;49.478;10.986;2023-05-28T01:20:45;98634.13;;;12.46;100.00
70815;BME280;58428;49.478;10.986;2023-05-28T01:23:15;98627.22;;;12.48;100.00
70815;BME280;58428;49.478;10.986;2023-05-28T01:25:44;98624.88;;;12.47;100.00
70815;BME280;58428;49.478;10.986;2023-05-28T01:28:11;98632.88;;;12.43;100.00
70815;BME280;58428;49.478;10.986;2023-05-28T01:30:42;98631.72;;;12.44;100.00
70815;BME280;58428;49.478;10.986;2023-05-28T01:33:12;98620.09;;;12.44;100.00
70815;BME280;58428;49.478;10.986;2023-05-28T01:35:41;98620.88;;;12.44;100.00
70815;BME280;58428;49.478;10.986;2023-05-28T01:38:10;98633.19;;;12.42;100.00
70815;BME280;58428;49.478;10.986;2023-05-28T01:40:37;98625.94;;;12.34;100.00
70815;BME280;58428;49.478;10.986;2023-05-28T01:43:05;98639.69;;;12.29;100.00
70815;BME280;58428;49.478;10.986;2023-05-28T01:45:31;98635.84;;;12.30;100.00
70815;BME280;58428;49.478;10.986;2023-05-28T01:47:57;98636.09;;;12.37;100.00
70815;BME280;58428;49.478;10.986;2023-05-28T01:50:23;98634.53;;;12.36;100.00
70815;BME280;58428;49.478;10.986;2023-05-28T01:52:51;98630.22;;;12.35;100.00
70815;BME280;58428;49.478;10.986;2023-05-28T01:55:18;98629.66;;;12.29;100.00
70815;BME280;58428;49.478;10.986;2023-05-28T01:57:45;98639.75;;;12.20;100.00
70815;BME280;58428;49.478;10.986;2023-05-28T02:00:11;98637.72;;;12.17;100.00
70815;BME280;58428;49.478;10.986;2023-05-28T02:02:37;98634.53;;;12.15;100.00
70815;BME280;58428;49.478;10.986;2023-05-28T02:05:02;98639.38;;;12.10;100.00
70815;BME280;58428;49.478;10.986;2023-05-28T02:07:31;98641.59;;;12.08;100.00
70815;BME280;58428;49.478;10.986;2023-05-28T02:09:56;98630.56;;;12.13;100.00
70815;BME280;58428;49.478;10.986;2023-05-28T02:12:22;98636.19;;;12.08;100.00
70815;BME280;58428;49.478;10.986;2023-05-28T02:14:47;98629.63;;;12.09;100.00
70815;BME280;58428;49.478;10.986;2023-05-28T02:17:13;98629.84;;;12.04;100.00
70815;BME280;58428;49.478;10.986;2023-05-28T02:19:38;98626.97;;;12.01;100.00
70815;BME280;58428;49.478;10.986;2023-05-28T02:22:03;98631.78;;;11.95;100.00
70815;BME280;58428;49.478;10.986;2023-05-28T02:24:35;98619.69;;;11.93;100.00
70815;BME280;58428;49.478;10.986;2023-05-28T02:27:01;98623.25;;;11.85;100.00
70815;BME280;58428;49.478;10.986;2023-05-28T02:29:26;98628.84;;;11.88;100.00
70815;BME280;58428;49.478;10.986;2023-05-28T02:31:52;98620.41;;;11.81;100.00
70815;BME280;58428;49.478;10.986;2023-05-28T02:34:17;98627.41;;;11.82;100.00
70815;BME280;58428;49.478;10.986;2023-05-28T02:36:43;98625.69;;;11.78;100.00
70815;BME280;58428;49.478;10.986;2023-05-28T02:39:08;98625.91;;;11.73;100.00
70815;BME280;58428;49.478;10.986;2023-05-28T02:41:35;98626.53;;;11.70;100.00
70815;BME280;58428;49.478;10.986;2023-05-28T02:44:01;98620.31;;;11.70;100.00
70815;BME280;58428;49.478;10.986;2023-05-28T02:46:28;98621.31;;;11.65;100.00
70815;BME280;58428;49.478;10.986;2023-05-28T02:48:53;98618.78;;;11.60;100.00
70815;BME280;58428;49.478;10.986;2023-05-28T02:51:19;98619.88;;;11.59;100.00
70815;BME280;58428;49.478;10.986;2023-05-28T02:53:44;98615.13;;;11.56;100.00
70815;BME280;58428;49.478;10.986;2023-05-28T02:56:10;98618.84;;;11.52;100.00
70815;BME280;58428;49.478;10.986;2023-05-28T02:58:36;98624.75;;;11.45;100.00
70815;BME280;58428;49.478;10.986;2023-05-28T03:01:04;98621.88;;;11.42;100.00
70815;BME280;58428;49.478;10.986;2023-05-28T03:03:31;98619.97;;;11.42;100.00
70815;BME280;58428;49.478;10.986;2023-05-28T03:05:57;98624.59;;;11.42;100.00
70815;BME280;58428;49.478;10.986;2023-05-28T03:08:22;98626.47;;;11.41;100.00
70815;BME280;58428;49.478;10.986;2023-05-28T03:10:48;98629.41;;;11.37;100.00
70815;BME280;58428;49.478;10.986;2023-05-28T03:13:14;98627.47;;;11.37;100.00
70815;BME280;58428;49.478;10.986;2023-05-28T03:15:40;98628.16;;;11.26;100.00
70815;BME280;58428;49.478;10.986;2023-05-28T03:18:05;98632.47;;;11.27;100.00
70815;BME280;58428;49.478;10.986;2023-05-28T03:20:31;98636.28;;;11.26;100.00
70815;BME280;58428;49.478;10.986;2023-05-28T03:22:57;98645.06;;;11.23;100.00
70815;BME280;58428;49.478;10.986;2023-05-28T03:25:24;98639.00;;;11.26;100.00
70815;BME280;58428;49.478;10.986;2023-05-28T03:27:51;98639.66;;;11.23;100.00
70815;BME280;58428;49.478;10.986;2023-05-28T03:30:17;98638.84;;;11.22;100.00
70815;BME280;58428;49.478;10.986;2023-05-28T03:32:43;98631.06;;;11.21;100.00
70815;BME280;58428;49.478;10.986;2023-05-28T03:35:10;98629.44;;;11.20;100.00
70815;BME280;58428;49.478;10.986;2023-05-28T03:37:37;98636.31;;;11.17;100.00
70815;BME280;58428;49.478;10.986;2023-05-28T03:40:03;98628.81;;;11.14;100.00
70815;BME280;58428;49.478;10.986;2023-05-28T03:42:31;98626.59;;;11.16;100.00
70815;BME280;58428;49.478;10.986;2023-05-28T03:44:56;98628.50;;;11.16;100.00
70815;BME280;58428;49.478;10.986;2023-05-28T03:47:21;98619.59;;;11.15;100.00
70815;BME280;58428;49.478;10.986;2023-05-28T03:49:49;98624.41;;;11.10;100.00
70815;BME280;58428;49.478;10.986;2023-05-28T03:52:15;98619.44;;;11.12;100.00
70815;BME280;58428;49.478;10.986;2023-05-28T03:54:40;98628.03;;;11.14;100.00
70815;BME280;58428;49.478;10.986;2023-05-28T03:57:06;98616.91;;;11.15;100.00
70815;BME280;58428;49.478;10.986;2023-05-28T03:59:31;98621.66;;;11.18;100.00
70815;BME280;58428;49.478;10.986;2023-05-28T04:01:57;98623.88;;;11.16;100.00
70815;BME280;58428;49.478;10.986;2023-05-28T04:04:22;98623.88;;;11.16;100.00
70815;BME280;58428;49.478;10.986;2023-05-28T04:06:47;98624.69;;;11.17;100.00
70815;BME280;58428;49.478;10.986;2023-05-28T04:09:13;98625.97;;;11.19;100.00
70815;BME280;58428;49.478;10.986;2023-05-28T04:11:39;98617.16;;;11.22;100.00
70815;BME280;58428;49.478;10.986;2023-05-28T04:14:04;98610.66;;;11.23;100.00
70815;BME280;58428;49.478;10.986;2023-05-28T04:16:31;98616.34;;;11.30;100.00
70815;BME280;58428;49.478;10.986;2023-05-28T04:18:56;98612.84;;;11.30;100.00
70815;BME280;58428;49.478;10.986;2023-05-28T04:21:23;98618.56;;;11.28;100.00
70815;BME280;58428;49.478;10.986;2023-05-28T04:23:48;98620.31;;;11.33;100.00
70815;BME280;58428;49.478;10.986;2023-05-28T04:26:16;98623.66;;;11.38;100.00
70815;BME280;58428;49.478;10.986;2023-05-28T04:28:42;98615.66;;;11.41;100.00
70815;BME280;58428;49.478;10.986;2023-05-28T04:31:08;98615.31;;;11.51;100.00
70815;BME280;58428;49.478;10.986;2023-05-28T04:33:34;98617.00;;;11.64;100.00
70815;BME280;58428;49.478;10.986;2023-05-28T04:36:01;98619.81;;;11.76;100.00
70815;BME280;58428;49.478;10.986;2023-05-28T04:38:27;98614.91;;;11.90;100.00
70815;BME280;58428;49.478;10.986;2023-05-28T04:41:04;98614.66;;;12.03;100.00
70815;BME280;58428;49.478;10.986;2023-05-28T04:43:30;98610.91;;;12.16;100.00
70815;BME280;58428;49.478;10.986;2023-05-28T04:45:57;98613.22;;;12.26;100.00
70815;BME280;58428;49.478;10.986;2023-05-28T04:48:23;98608.41;;;12.31;100.00
70815;BME280;58428;49.478;10.986;2023-05-28T04:50:49;98617.59;;;12.39;100.00
70815;BME280;58428;49.478;10.986;2023-05-28T04:53:24;98614.00;;;12.47;100.00
70815;BME280;58428;49.478;10.986;2023-05-28T04:55:52;98617.66;;;12.50;100.00
70815;BME280;58428;49.478;10.986;2023-05-28T04:58:18;98618.56;;;12.54;100.00
70815;BME280;58428;49.478;10.986;2023-05-28T05:00:49;98624.91;;;12.58;100.00
70815;BME280;58428;49.478;10.986;2023-05-28T05:03:17;98624.22;;;12.61;100.00
70815;BME280;58428;49.478;10.986;2023-05-28T05:05:43;98624.16;;;12.70;100.00
70815;BME280;58428;49.478;10.986;2023-05-28T05:08:08;98622.97;;;12.79;100.00
70815;BME280;58428;49.478;10.986;2023-05-28T05:10:37;98617.03;;;12.97;100.00
70815;BME280;58428;49.478;10.986;2023-05-28T05:13:02;98619.94;;;12.92;100.00
70815;BME280;58428;49.478;10.986;2023-05-28T05:15:28;98622.59;;;13.01;100.00
70815;BME280;58428;49.478;10.986;2023-05-28T05:17:55;98614.09;;;13.02;100.00
70815;BME280;58428;49.478;10.986;2023-05-28T05:20:21;98624.53;;;13.12;100.00
70815;BME280;58428;49.478;10.986;2023-05-28T05:22:48;98624.66;;;13.16;100.00
70815;BME280;58428;49.478;10.986;2023-05-28T05:25:13;98615.16;;;13.22;100.00
70815;BME280;58428;49.478;10.986;2023-05-28T05:27:39;98622.06;;;13.31;100.00
70815;BME280;58428;49.478;10.986;2023-05-28T05:30:06;98615.19;;;13.45;100.00
70815;BME280;58428;49.478;10.986;2023-05-28T05:32:33;98615.72;;;13.51;100.00
70815;BME280;58428;49.478;10.986;2023-05-28T05:35:05;98616.22;;;13.64;100.00
70815;BME280;58428;49.478;10.986;2023-05-28T05:37:31;98614.16;;;13.73;100.00
70815;BME280;58428;49.478;10.986;2023-05-28T05:39:57;98616.63;;;13.90;100.00
70815;BME280;58428;49.478;10.986;2023-05-28T05:42:24;98612.88;;;14.06;100.00
70815;BME280;58428;49.478;10.986;2023-05-28T05:44:52;98613.13;;;14.13;100.00
70815;BME280;58428;49.478;10.986;2023-05-28T05:47:18;98612.63;;;14.23;100.00
70815;BME280;58428;49.478;10.986;2023-05-28T05:49:44;98614.53;;;14.35;100.00
70815;BME280;58428;49.478;10.986;2023-05-28T05:52:10;98612.56;;;14.47;100.00
70815;BME280;58428;49.478;10.986;2023-05-28T05:54:36;98614.28;;;14.67;100.00
70815;BME280;58428;49.478;10.986;2023-05-28T05:57:02;98617.06;;;14.82;100.00
70815;BME280;58428;49.478;10.986;2023-05-28T05:59:28;98616.53;;;14.92;100.00
70815;BME280;58428;49.478;10.986;2023-05-28T06:01:53;98608.31;;;15.04;100.00
70815;BME280;58428;49.478;10.986;2023-05-28T06:04:19;98606.91;;;15.09;100.00
70815;BME280;58428;49.478;10.986;2023-05-28T06:06:46;98605.78;;;15.10;100.00
70815;BME280;58428;49.478;10.986;2023-05-28T06:09:12;98600.66;;;15.09;100.00
70815;BME280;58428;49.478;10.986;2023-05-28T06:11:39;98607.31;;;15.23;100.00
70815;BME280;58428;49.478;10.986;2023-05-28T06:14:08;98596.41;;;15.23;100.00
70815;BME280;58428;49.478;10.986;2023-05-28T06:16:34;98602.66;;;15.24;100.00
70815;BME280;58428;49.478;10.986;2023-05-28T06:18:59;98617.69;;;15.33;100.00
70815;BME280;58428;49.478;10.986;2023-05-28T06:21:26;98612.50;;;15.44;100.00
70815;BME280;58428;49.478;10.986;2023-05-28T06:23:52;98610.41;;;15.52;100.00
70815;BME280;58428;49.478;10.986;2023-05-28T06:26:19;98600.69;;;15.70;100.00
70815;BME280;58428;49.478;10.986;2023-05-28T06:28:44;98603.09;;;15.72;100.00
70815;BME280;58428;49.478;10.986;2023-05-28T06:31:09;98600.16;;;15.80;100.00
70815;BME280;58428;49.478;10.986;2023-05-28T06:33:35;98596.44;;;15.88;100.00
70815;BME280;58428;49.478;10.986;2023-05-28T06:36:00;98597.09;;;16.00;100.00
70815;BME280;58428;49.478;10.986;2023-05-28T06:38:26;98599.06;;;16.00;100.00
70815;BME280;58428;49.478;10.986;2023-05-28T06:40:52;98600.47;;;15.94;100.00
70815;BME280;58428;49.478;10.986;2023-05-28T06:43:17;98593.94;;;15.98;100.00
70815;BME280;58428;49.478;10.986;2023-05-28T06:45:43;98605.03;;;16.21;100.00
70815;BME280;58428;49.478;10.986;2023-05-28T06:48:08;98604.09;;;16.32;100.00
70815;BME280;58428;49.478;10.986;2023-05-28T06:50:34;98603.88;;;16.40;100.00
70815;BME280;58428;49.478;10.986;2023-05-28T06:52:59;98605.44;;;16.41;100.00
70815;BME280;58428;49.478;10.986;2023-05-28T06:55:27;98601.44;;;16.54;100.00
70815;BME280;58428;49.478;10.986;2023-05-28T06:57:53;98607.84;;;16.61;100.00
70815;BME280;58428;49.478;10.986;2023-05-28T07:00:20;98603.81;;;16.74;100.00
70815;BME280;58428;49.478;10.986;2023-05-28T07:02:46;98611.56;;;16.91;100.00
70815;BME280;58428;49.478;10.986;2023-05-28T07:05:11;98603.06;;;16.96;100.00
70815;BME280;58428;49.478;10.986;2023-05-28T07:07:38;98614.41;;;17.17;100.00
70815;BME280;58428;49.478;10.986;2023-05-28T07:10:04;98608.78;;;17.29;100.00
70815;BME280;58428;49.478;10.986;2023-05-28T07:12:29;98615.22;;;17.39;100.00
70815;BME280;58428;49.478;10.986;2023-05-28T07:14:55;98612.72;;;17.53;100.00
70815;BME280;58428;49.478;10.986;2023-05-28T07:17:21;98608.16;;;17.61;100.00
70815;BME280;58428;49.478;10.986;2023-05-28T07:19:47;98607.66;;;17.55;100.00
70815;BME280;58428;49.478;10.986;2023-05-28T07:22:12;98611.31;;;17.63;100.00
70815;BME280;58428;49.478;10.986;2023-05-28T07:24:38;98607.28;;;17.79;100.00
70815;BME280;58428;49.478;10.986;2023-05-28T07:27:03;98610.25;;;17.93;100.00
70815;BME280;58428;49.478;10.986;2023-05-28T07:29:29;98614.84;;;18.11;100.00
70815;BME280;58428;49.478;10.986;2023-05-28T07:31:55;98611.50;;;18.24;100.00
70815;BME280;58428;49.478;10.986;2023-05-28T07:34:21;98602.28;;;18.36;100.00
70815;BME280;58428;49.478;10.986;2023-05-28T07:36:46;98607.47;;;18.44;100.00
70815;BME280;58428;49.478;10.986;2023-05-28T07:39:12;98609.50;;;18.47;100.00
70815;BME280;58428;49.478;10.986;2023-05-28T07:41:37;98603.00;;;18.62;100.00
70815;BME280;58428;49.478;10.986;2023-05-28T07:44:02;98599.66;;;18.75;100.00
70815;BME280;58428;49.478;10.986;2023-05-28T07:46:29;98598.66;;;18.90;100.00
70815;BME280;58428;49.478;10.986;2023-05-28T07:48:57;98599.13;;;18.95;100.00
70815;BME280;58428;49.478;10.986;2023-05-28T07:51:26;98592.56;;;19.03;100.00
70815;BME280;58428;49.478;10.986;2023-05-28T07:53:53;98586.72;;;19.05;100.00
70815;BME280;58428;49.478;10.986;2023-05-28T07:56:20;98595.31;;;19.03;100.00
70815;BME280;58428;49.478;10.986;2023-05-28T07:58:48;98590.28;;;19.09;100.00
70815;BME280;58428;49.478;10.986;2023-05-28T08:01:14;98589.06;;;19.06;100.00
70815;BME280;58428;49.478;10.986;2023-05-28T08:03:41;98596.13;;;19.07;100.00
70815;BME280;58428;49.478;10.986;2023-05-28T08:06:06;98585.66;;;19.19;100.00
70815;BME280;58428;49.478;10.986;2023-05-28T08:08:35;98584.28;;;19.36;100.00
70815;BME280;58428;49.478;10.986;2023-05-28T08:11:01;98588.00;;;19.57;100.00
70815;BME280;58428;49.478;10.986;2023-05-28T08:13:26;98591.25;;;19.73;100.00
70815;BME280;58428;49.478;10.986;2023-05-28T08:15:53;98584.69;;;19.81;100.00
70815;BME280;58428;49.478;10.986;2023-05-28T08:18:19;98587.94;;;19.96;100.00
70815;BME280;58428;49.478;10.986;2023-05-28T08:20:44;98583.31;;;20.11;100.00
70815;BME280;58428;49.478;10.986;2023-05-28T08:23:11;98583.31;;;20.14;100.00
70815;BME280;58428;49.478;10.986;2023-05-28T08:25:37;98579.84;;;20.24;100.00
70815;BME280;58428;49.478;10.986;2023-05-28T08:28:03;98583.41;;;20.25;97.75
70815;BME280;58428;49.478;10.986;2023-05-28T08:30:30;98579.44;;;20.22;96.66
70815;BME280;58428;49.478;10.986;2023-05-28T08:32:55;98580.88;;;19.99;91.43
70815;BME280;58428;49.478;10.986;2023-05-28T08:35:21;98575.41;;;20.02;95.73
70815;BME280;58428;49.478;10.986;2023-05-28T08:37:46;98579.84;;;20.24;97.45
70815;BME280;58428;49.478;10.986;2023-05-28T08:40:14;98570.94;;;20.44;97.45
70815;BME280;58428;49.478;10.986;2023-05-28T08:42:40;98571.38;;;20.50;94.17
70815;BME280;58428;49.478;10.986;2023-05-28T08:45:06;98572.13;;;20.47;92.54
70815;BME280;58428;49.478;10.986;2023-05-28T08:47:32;98562.72;;;20.55;95.03
70815;BME280;58428;49.478;10.986;2023-05-28T08:50:02;98562.06;;;20.71;93.10
70815;BME280;58428;49.478;10.986;2023-05-28T08:52:30;98561.69;;;20.83;92.75
70815;BME280;58428;49.478;10.986;2023-05-28T08:54:57;98556.59;;;20.89;91.02
70815;BME280;58428;49.478;10.986;2023-05-28T08:57:24;98564.06;;;20.92;90.56
70815;BME280;58428;49.478;10.986;2023-05-28T08:59:53;98554.66;;;20.93;85.81
70815;BME280;58428;49.478;10.986;2023-05-28T09:02:23;98552.66;;;20.90;83.00
70815;BME280;58428;49.478;10.986;2023-05-28T09:04:49;98555.00;;;20.88;84.04
70815;BME280;58428;49.478;10.986;2023-05-28T09:07:18;98555.44;;;21.03;83.63
70815;BME280;58428;49.478;10.986;2023-05-28T09:09:45;98549.97;;;21.14;83.89
70815;BME280;58428;49.478;10.986;2023-05-28T09:12:12;98547.63;;;21.26;80.91
70815;BME280;58428;49.478;10.986;2023-05-28T09:14:50;98541.38;;;21.40;80.61
70815;BME280;58428;49.478;10.986;2023-05-28T09:17:36;98545.72;;;21.51;78.78
70815;BME280;58428;49.478;10.986;2023-05-28T09:20:12;98544.91;;;21.64;81.83
70815;BME280;58428;49.478;10.986;2023-05-28T09:22:41;98535.09;;;21.74;78.22
70815;BME280;58428;49.478;10.986;2023-05-28T09:25:11;98537.00;;;21.87;79.78
70815;BME280;58428;49.478;10.986;2023-05-28T09:27:38;98530.69;;;21.97;80.69
70815;BME280;58428;49.478;10.986;2023-05-28T09:30:08;98525.56;;;22.16;81.19
70815;BME280;58428;49.478;10.986;2023-05-28T09:32:35;98515.34;;;22.17;77.55
70815;BME280;58428;49.478;10.986;2023-05-28T09:35:05;98529.50;;;22.05;77.38
70815;BME280;58428;49.478;10.986;2023-05-28T09:37:31;98524.88;;;21.60;77.70
70815;BME280;58428;49.478;10.986;2023-05-28T09:40:00;98513.00;;;21.77;81.19
70815;BME280;58428;49.478;10.986;2023-05-28T09:42:31;98511.38;;;22.04;81.12
70815;BME280;58428;49.478;10.986;2023-05-28T09:45:00;98515.28;;;22.20;80.07
70815;BME280;58428;49.478;10.986;2023-05-28T09:47:25;98512.53;;;22.27;78.20
70815;BME280;58428;49.478;10.986;2023-05-28T09:49:51;98515.66;;;22.29;76.72
70815;BME280;58428;49.478;10.986;2023-05-28T09:52:20;98514.91;;;22.18;73.24
70815;BME280;58428;49.478;10.986;2023-05-28T09:54:51;98511.31;;;22.31;75.70
70815;BME280;58428;49.478;10.986;2023-05-28T09:57:23;98510.91;;;22.40;73.65
70815;BME280;58428;49.478;10.986;2023-05-28T09:59:53;98503.34;;;22.54;73.65
70815;BME280;58428;49.478;10.986;2023-05-28T10:02:34;98494.28;;;22.57;70.49
70815;BME280;58428;49.478;10.986;2023-05-28T10:05:02;98494.22;;;22.67;72.46
70815;BME280;58428;49.478;10.986;2023-05-28T10:07:33;98493.34;;;22.84;72.49
70815;BME280;58428;49.478;10.986;2023-05-28T10:10:01;98499.66;;;22.81;69.16
70815;BME280;58428;49.478;10.986;2023-05-28T10:12:28;98499.66;;;22.85;67.94
70815;BME280;58428;49.478;10.986;2023-05-28T10:14:56;98495.69;;;22.86;65.60
70815;BME280;58428;49.478;10.986;2023-05-28T10:17:21;98486.94;;;23.04;70.03
70815;BME280;58428;49.478;10.986;2023-05-28T10:19:48;98491.53;;;23.25;65.00
70815;BME280;58428;49.478;10.986;2023-05-28T10:22:15;98487.47;;;23.36;60.57
70815;BME280;58428;49.478;10.986;2023-05-28T10:24:43;98498.06;;;23.44;55.84
70815;BME280;58428;49.478;10.986;2023-05-28T10:27:13;98489.28;;;23.53;55.59
70815;BME280;58428;49.478;10.986;2023-05-28T10:29:43;98487.69;;;23.55;54.77
70815;BME280;58428;49.478;10.986;2023-05-28T10:32:09;98485.44;;;23.43;49.82
70815;BME280;58428;49.478;10.986;2023-05-28T10:34:41;98483.63;;;23.27;50.16
70815;BME280;58428;49.478;10.986;2023-05-28T10:37:08;98477.31;;;23.23;52.94
70815;BME280;58428;49.478;10.986;2023-05-28T10:42:07;98476.72;;;23.48;51.54
70815;BME280;58428;49.478;10.986;2023-05-28T10:45:05;98475.84;;;23.55;49.63
70815;BME280;58428;49.478;10.986;2023-05-28T10:52:32;98476.91;;;24.07;52.40
70815;BME280;58428;49.478;10.986;2023-05-28T10:55:02;98470.09;;;24.15;49.55
70815;BME280;58428;49.478;10.986;2023-05-28T10:57:46;98474.06;;;24.14;48.43
70815;BME280;58428;49.478;10.986;2023-05-28T11:00:13;98471.34;;;24.11;48.65
70815;BME280;58428;49.478;10.986;2023-05-28T11:02:53;98463.66;;;23.92;45.83
70815;BME280;58428;49.478;10.986;2023-05-28T11:05:23;98475.16;;;23.91;45.82
70815;BME280;58428;49.478;10.986;2023-05-28T11:07:50;98464.94;;;23.84;45.09
70815;BME280;58428;49.478;10.986;2023-05-28T11:10:16;98468.81;;;23.90;46.79
70815;BME280;58428;49.478;10.986;2023-05-28T11:12:44;98468.22;;;24.09;46.55
70815;BME280;58428;49.478;10.986;2023-05-28T11:15:12;98464.34;;;24.03;42.89
70815;BME280;58428;49.478;10.986;2023-05-28T11:17:41;98461.03;;;24.15;44.98
70815;BME280;58428;49.478;10.986;2023-05-28T11:22:45;98456.31;;;23.79;44.47
70815;BME280;58428;49.478;10.986;2023-05-28T11:25:11;98454.19;;;23.93;44.46
70815;BME280;58428;49.478;10.986;2023-05-28T11:27:41;98454.00;;;24.07;44.04
70815;BME280;58428;49.478;10.986;2023-05-28T11:30:12;98454.31;;;24.16;43.76
70815;BME280;58428;49.478;10.986;2023-05-28T11:32:39;98443.91;;;24.27;43.94
70815;BME280;58428;49.478;10.986;2023-05-28T11:35:05;98448.81;;;24.45;44.21
70815;BME280;58428;49.478;10.986;2023-05-28T11:37:34;98439.78;;;24.41;42.43
70815;BME280;58428;49.478;10.986;2023-05-28T11:40:00;98448.78;;;24.49;42.56
70815;BME280;58428;49.478;10.986;2023-05-28T11:42:29;98444.34;;;24.55;43.99
70815;BME280;58428;49.478;10.986;2023-05-28T11:44:55;98453.13;;;24.46;40.67
70815;BME280;58428;49.478;10.986;2023-05-28T11:47:21;98442.59;;;24.38;43.45
70815;BME280;58428;49.478;10.986;2023-05-28T11:49:48;98442.44;;;24.48;42.12
70815;BME280;58428;49.478;10.986;2023-05-28T11:52:26;98438.91;;;24.48;42.13
70815;BME280;58428;49.478;10.986;2023-05-28T11:54:56;98432.13;;;24.52;43.08
70815;BME280;58428;49.478;10.986;2023-05-28T11:57:26;98431.56;;;24.64;43.95
70815;BME280;58428;49.478;10.986;2023-05-28T12:00:04;98428.47;;;24.59;41.94
70815;BME280;58428;49.478;10.986;2023-05-28T12:05:08;98430.47;;;24.84;42.35
70815;BME280;58428;49.478;10.986;2023-05-28T12:07:35;98427.91;;;24.71;42.90
70815;BME280;58428;49.478;10.986;2023-05-28T12:10:09;98427.66;;;24.88;44.09
70815;BME280;58428;49.478;10.986;2023-05-28T12:12:39;98443.75;;;24.96;42.24
70815;BME280;58428;49.478;10.986;2023-05-28T12:15:05;98440.16;;;24.99;40.58
70815;BME280;58428;49.478;10.986;2023-05-28T12:17:40;98426.28;;;25.03;40.01
70815;BME280;58428;49.478;10.986;2023-05-28T12:22:42;98427.16;;;24.96;38.70
70815;BME280;58428;49.478;10.986;2023-05-28T12:25:08;98428.97;;;25.06;40.89
70815;BME280;58428;49.478;10.986;2023-05-28T12:27:35;98420.19;;;25.11;40.43
70815;BME280;58428;49.478;10.986;2023-05-28T12:30:01;98420.00;;;25.21;40.63
70815;BME280;58428;49.478;10.986;2023-05-28T12:32:26;98419.84;;;25.32;39.66
70815;BME280;58428;49.478;10.986;2023-05-28T12:34:52;98422.53;;;25.35;38.84
70815;BME280;58428;49.478;10.986;2023-05-28T12:37:21;98416.63;;;25.33;40.35
70815;BME280;58428;49.478;10.986;2023-05-28T12:39:58;98418.78;;;25.45;40.85
70815;BME280;58428;49.478;10.986;2023-05-28T12:42:24;98412.09;;;25.43;41.49
70815;BME280;58428;49.478;10.986;2023-05-28T12:44:50;98415.50;;;25.31;41.12
70815;BME280;58428;49.478;10.986;2023-05-28T12:47:15;98402.59;;;25.44;43.13
70815;BME280;58428;49.478;10.986;2023-05-28T12:49:41;98413.59;;;25.28;42.12
70815;BME280;58428;49.478;10.986;2023-05-28T12:52:06;98408.97;;;25.18;42.38
70815;BME280;58428;49.478;10.986;2023-05-28T12:54:33;98402.34;;;25.12;42.80
70815;BME280;58428;49.478;10.986;2023-05-28T12:56:58;98409.56;;;25.06;42.26